Time;durP1;ratioP1;P1;durP2;ratioP2;P2;SDS_P1;SDS_P2;PMS_P1;PMS_P2;Temp;Humidity;BMP_temperature;BMP_pressure;BME280_temperature;BME280_humidity;BME280_pressure;Samples;Min_cycle;Max_cycle;Signal;HPM_P1;HPM_P2
2021/08/12 00:00:23;;;;;;;7.40;4.10;;;;;;;21.47;66.07;100686.28;4973620;28;20798;-82
2021/08/12 00:02:48;;;;;;;4.37;3.93;;;;;;;21.46;66.23;100692.09;4974085;28;20450;-82
2021/08/12 00:05:14;;;;;;;7.33;4.43;;;;;;;21.48;66.13;100698.13;4972951;28;21032;-82
2021/08/12 00:07:39;;;;;;;8.48;4.55;;;;;;;21.46;65.84;100695.69;4972744;28;20491;-82
2021/08/12 00:10:05;;;;;;;8.17;4.30;;;;;;;21.45;65.78;100696.81;4972659;28;20404;-81
2021/08/12 00:12:30;;;;;;;8.75;4.28;;;;;;;21.43;66.06;100692.72;4972364;28;20418;-82
2021/08/12 00:14:56;;;;;;;4.27;3.83;;;;;;;21.38;65.97;100687.31;4971359;28;20408;-82
2021/08/12 00:17:21;;;;;;;6.47;4.18;;;;;;;21.33;66.29;100692.97;4972750;28;20744;-82
2021/08/12 00:19:46;;;;;;;4.60;4.20;;;;;;;21.29;66.39;100692.78;4972338;28;20400;-82
2021/08/12 00:22:11;;;;;;;7.77;3.93;;;;;;;21.27;66.17;100695.03;4972362;28;20412;-82
2021/08/12 00:24:37;;;;;;;5.43;4.27;;;;;;;21.24;66.12;100690.13;4972687;28;20436;-82
2021/08/12 00:27:02;;;;;;;5.90;4.00;;;;;;;21.18;66.30;100683.91;4972232;28;20416;-82
2021/08/12 00:29:31;;;;;;;4.63;3.80;;;;;;;21.13;66.41;100675.78;4972923;28;20861;-82
2021/08/12 00:31:57;;;;;;;5.32;4.07;;;;;;;21.10;66.78;100672.81;4975194;28;20435;-82
2021/08/12 00:34:22;;;;;;;5.60;4.20;;;;;;;21.10;66.63;100683.84;4983083;28;20402;-82
2021/08/12 00:36:49;;;;;;;5.45;3.78;;;;;;;21.09;66.63;100676.66;4972365;28;20427;-82
2021/08/12 00:39:14;;;;;;;6.43;4.43;;;;;;;21.07;66.49;100681.66;4972665;28;20407;-82
2021/08/12 00:41:39;;;;;;;6.13;4.43;;;;;;;21.05;66.82;100676.47;4972129;28;20538;-82
2021/08/12 00:44:05;;;;;;;4.77;3.60;;;;;;;21.02;66.58;100679.00;4972572;28;20412;-82
2021/08/12 00:46:30;;;;;;;5.43;4.10;;;;;;;21.02;66.64;100670.75;4972340;28;20404;-82
2021/08/12 00:48:55;;;;;;;5.77;4.03;;;;;;;20.97;67.01;100670.88;4971806;28;20400;-82
2021/08/12 00:51:21;;;;;;;4.77;4.23;;;;;;;20.94;66.93;100675.06;4972597;28;20509;-82
2021/08/12 00:53:48;;;;;;;5.05;4.30;;;;;;;20.95;66.92;100678.59;4961467;28;20499;-82
2021/08/12 00:56:13;;;;;;;4.47;3.70;;;;;;;20.94;66.76;100683.31;4935637;29;20810;-82
2021/08/12 00:58:39;;;;;;;5.27;4.37;;;;;;;20.96;66.26;100681.06;4952642;29;20458;-82
2021/08/12 01:01:04;;;;;;;5.60;4.10;;;;;;;20.97;66.50;100679.13;4951297;28;20402;-82
2021/08/12 01:03:29;;;;;;;4.40;4.00;;;;;;;20.95;67.07;100684.94;4936116;29;20438;-82
2021/08/12 01:05:56;;;;;;;7.88;4.40;;;;;;;20.93;67.55;100692.72;4951225;29;20421;-82
2021/08/12 01:08:36;;;;;;;7.10;4.70;;;;;;;20.92;68.01;100695.75;4952853;29;20410;-82
2021/08/12 01:11:15;;;;;;;7.38;4.18;;;;;;;20.92;68.05;100695.75;4947320;29;20409;-82
2021/08/12 01:14:02;;;;;;;5.95;4.40;;;;;;;20.93;68.12;100698.22;4952942;28;20793;-82
2021/08/12 01:16:31;;;;;;;7.03;4.72;;;;;;;20.92;68.13;100687.50;4941075;29;20410;-82
2021/08/12 01:19:13;;;;;;;7.35;4.80;;;;;;;20.90;68.29;100689.75;4952298;29;20417;-82
2021/08/12 01:21:47;;;;;;;7.30;3.70;;;;;;;20.88;67.66;100684.53;4952759;29;20410;-82
2021/08/12 01:24:14;;;;;;;6.15;3.83;;;;;;;20.88;67.08;100683.75;4951916;29;20418;-83
2021/08/12 01:26:43;;;;;;;6.38;4.13;;;;;;;20.82;66.68;100684.94;4952931;28;20887;-82
2021/08/12 01:29:18;;;;;;;5.13;3.92;;;;;;;20.77;66.88;100690.56;4956501;29;20405;-82
2021/08/12 01:32:00;;;;;;;6.75;4.03;;;;;;;20.66;67.15;100688.03;4970337;28;20432;-83
2021/08/12 01:34:50;;;;;;;4.50;4.10;;;;;;;20.65;66.81;100699.34;4970339;28;20414;-82
2021/08/12 01:37:16;;;;;;;5.72;3.95;;;;;;;20.58;66.60;100694.22;4949551;29;20406;-83
2021/08/12 01:39:43;;;;;;;9.13;3.83;;;;;;;20.53;66.60;100696.28;4956628;29;20797;-82
2021/08/12 01:42:11;;;;;;;4.40;3.85;;;;;;;20.47;66.80;100701.09;4956388;29;20961;-83
2021/08/12 01:44:38;;;;;;;4.93;3.80;;;;;;;20.31;65.96;100710.75;4956529;29;20429;-83
2021/08/12 01:47:05;;;;;;;6.40;3.90;;;;;;;20.19;67.09;100697.44;4956213;29;20439;-82
2021/08/12 01:49:31;;;;;;;4.80;3.58;;;;;;;20.12;67.18;100698.97;4957927;28;20440;-82
2021/08/12 01:51:56;;;;;;;7.47;4.20;;;;;;;20.07;67.75;100704.53;4968661;28;20915;-82
2021/08/12 01:54:23;;;;;;;6.47;4.00;;;;;;;20.07;67.85;100694.34;4990675;28;20473;-82
2021/08/12 01:56:50;;;;;;;8.52;4.30;;;;;;;20.09;67.64;100683.03;4978714;28;20771;-82
2021/08/12 01:59:17;;;;;;;5.20;3.55;;;;;;;20.06;67.96;100689.97;4979332;28;20950;-82
2021/08/12 02:01:47;;;;;;;4.47;3.75;;;;;;;20.05;68.13;100684.78;4998497;28;20906;-82
2021/08/12 02:04:13;;;;;;;4.83;4.40;;;;;;;20.04;68.12;100683.13;4975456;28;20871;-82
2021/08/12 02:06:39;;;;;;;7.05;4.18;;;;;;;19.98;68.32;100681.59;4975244;28;20408;-82
2021/08/12 02:09:04;;;;;;;5.45;3.45;;;;;;;19.96;68.55;100673.63;4975136;28;20767;-82
2021/08/12 02:11:34;;;;;;;5.23;3.80;;;;;;;19.97;68.42;100674.44;4975220;28;20456;-82
2021/08/12 02:13:59;;;;;;;7.85;4.28;;;;;;;19.94;68.22;100667.63;4975229;28;20542;-82
2021/08/12 02:16:24;;;;;;;6.57;3.70;;;;;;;19.90;68.34;100661.09;4975125;28;20388;-82
2021/08/12 02:18:50;;;;;;;5.33;3.87;;;;;;;19.92;68.27;100664.34;4989943;28;20404;-82
2021/08/12 02:21:30;;;;;;;6.80;4.30;;;;;;;19.87;68.24;100658.94;4975203;28;20488;-83
2021/08/12 02:24:03;;;;;;;8.65;4.78;;;;;;;19.83;68.88;100665.34;4989227;28;20410;-82
2021/08/12 02:26:39;;;;;;;6.65;4.13;;;;;;;19.85;68.97;100657.63;4974412;28;20427;-82
2021/08/12 02:29:06;;;;;;;4.97;4.45;;;;;;;19.82;68.93;100653.53;4974650;28;20483;-82
2021/08/12 02:31:31;;;;;;;4.82;4.32;;;;;;;19.84;68.75;100654.03;4974771;28;20403;-82
2021/08/12 02:33:59;;;;;;;5.60;4.40;;;;;;;19.79;68.77;100656.88;4974880;28;20423;-82
2021/08/12 02:36:25;;;;;;;6.47;4.72;;;;;;;19.77;69.26;100655.53;4974934;28;20752;-82
2021/08/12 02:38:52;;;;;;;5.82;4.53;;;;;;;19.80;69.23;100652.19;4973947;28;20391;-82
2021/08/12 02:41:20;;;;;;;5.20;4.23;;;;;;;19.82;69.03;100652.72;4974478;28;20476;-82
2021/08/12 02:43:46;;;;;;;6.57;4.43;;;;;;;19.81;68.96;100654.66;4973337;28;20408;-82
2021/08/12 02:46:16;;;;;;;4.20;3.90;;;;;;;19.84;68.76;100654.03;4974453;28;20405;-82
2021/08/12 02:48:41;;;;;;;5.63;4.43;;;;;;;19.83;68.54;100657.09;4974616;28;20416;-82
2021/08/12 02:51:08;;;;;;;5.17;4.67;;;;;;;19.80;68.79;100647.50;4973318;28;20439;-82
2021/08/12 02:53:36;;;;;;;4.32;3.92;;;;;;;19.80;68.75;100646.69;4974381;28;20953;-82
2021/08/12 02:56:05;;;;;;;5.77;3.97;;;;;;;19.80;68.64;100647.50;4975277;28;20429;-82
2021/08/12 02:58:33;;;;;;;5.63;4.18;;;;;;;19.81;68.77;100651.09;4974080;28;20412;-82
2021/08/12 03:00:59;;;;;;;4.63;4.10;;;;;;;19.83;68.65;100652.41;4974265;28;20439;-82
2021/08/12 03:03:26;;;;;;;4.72;4.20;;;;;;;19.82;68.65;100650.78;4977942;28;20399;-82
2021/08/12 03:05:53;;;;;;;5.07;3.97;;;;;;;19.84;68.87;100655.97;4988390;28;20497;-82
2021/08/12 03:08:19;;;;;;;6.57;4.72;;;;;;;19.85;68.69;100650.19;4988795;28;20416;-82
2021/08/12 03:10:45;;;;;;;8.88;4.72;;;;;;;19.86;68.72;100651.81;4974165;28;20748;-82
2021/08/12 03:13:11;;;;;;;6.37;4.60;;;;;;;19.85;68.71;100660.38;4973971;28;20408;-82
2021/08/12 03:15:38;;;;;;;4.68;4.28;;;;;;;19.82;68.49;100652.72;4974054;28;20404;-82
2021/08/12 03:18:03;;;;;;;6.75;4.70;;;;;;;19.78;68.77;100654.44;4988439;28;20393;-82
2021/08/12 03:20:29;;;;;;;4.13;3.72;;;;;;;19.77;68.50;100653.63;4973096;28;20767;-83
2021/08/12 03:22:56;;;;;;;6.43;4.30;;;;;;;19.76;67.66;100660.22;4973537;28;20435;-82
2021/08/12 03:25:22;;;;;;;5.57;4.10;;;;;;;19.71;68.07;100665.00;4973709;28;20404;-82
2021/08/12 03:27:47;;;;;;;6.28;3.97;;;;;;;19.66;68.34;100660.41;4973216;28;20440;-83
2021/08/12 03:30:14;;;;;;;5.70;3.78;;;;;;;19.63;68.26;100669.25;4973744;28;20428;-82
2021/08/12 03:32:39;;;;;;;52.50;31.23;;;;;;;19.60;67.86;100669.84;4973180;28;20511;-82
2021/08/12 03:35:05;;;;;;;4.47;3.50;;;;;;;19.54;67.60;100669.13;4973850;28;20531;-82
2021/08/12 03:37:30;;;;;;;11.40;4.15;;;;;;;19.50;67.72;100673.56;4973592;28;20744;-82
2021/08/12 03:39:55;;;;;;;7.00;4.17;;;;;;;19.46;68.15;100682.72;4973867;28;20745;-82
2021/08/12 03:42:20;;;;;;;14.87;4.30;;;;;;;19.45;68.63;100675.59;4972942;28;20416;-82
2021/08/12 03:44:46;;;;;;;9.13;3.90;;;;;;;19.43;69.12;100664.09;4971999;28;20475;-82
2021/08/12 03:47:11;;;;;;;4.95;4.45;;;;;;;19.44;69.51;100674.78;4976943;28;20879;-82
2021/08/12 03:49:36;;;;;;;6.67;4.40;;;;;;;19.44;69.57;100668.44;4972141;28;20399;-82
2021/08/12 03:52:03;;;;;;;3.87;3.47;;;;;;;19.45;70.05;100667.34;4987382;28;20408;-82
2021/08/12 03:54:28;;;;;;;7.93;5.73;;;;;;;19.46;70.64;100661.53;4957288;28;20924;-82
2021/08/12 03:56:53;;;;;;;5.83;4.67;;;;;;;19.47;70.22;100663.19;4953331;29;20405;-82
2021/08/12 03:59:21;;;;;;;5.13;4.33;;;;;;;19.47;70.00;100660.44;4953890;29;20417;-82
2021/08/12 04:01:46;;;;;;;5.63;4.80;;;;;;;19.45;70.46;100659.09;4953705;29;20468;-82
2021/08/12 04:04:11;;;;;;;6.43;3.70;;;;;;;19.44;70.85;100654.72;4953086;29;20414;-83
2021/08/12 04:06:37;;;;;;;9.73;5.97;;;;;;;19.43;70.79;100666.84;4953353;28;20405;-82
2021/08/12 04:09:02;;;;;;;6.17;4.43;;;;;;;19.42;70.72;100666.03;4953704;29;20409;-82
2021/08/12 04:11:28;;;;;;;5.32;4.07;;;;;;;19.44;69.95;100662.97;4953954;29;20464;-82
2021/08/12 04:13:53;;;;;;;5.27;4.60;;;;;;;19.46;69.60;100669.00;4953676;28;20436;-82
2021/08/12 04:16:18;;;;;;;5.60;4.40;;;;;;;19.44;69.27;100671.19;4953410;29;20417;-82
2021/08/12 04:18:43;;;;;;;6.38;4.30;;;;;;;19.43;68.94;100675.09;4953794;29;20464;-82
2021/08/12 04:21:09;;;;;;;5.57;4.23;;;;;;;19.36;68.84;100672.69;4953575;29;20968;-82
2021/08/12 04:23:35;;;;;;;12.15;4.53;;;;;;;19.28;69.17;100680.75;4953596;28;20880;-82
2021/08/12 04:26:00;;;;;;;4.50;4.10;;;;;;;19.25;69.32;100673.13;4952776;29;20409;-82
2021/08/12 04:28:25;;;;;;;5.97;4.60;;;;;;;19.23;68.97;100676.19;4953352;29;20406;-82
2021/08/12 04:30:51;;;;;;;7.28;4.60;;;;;;;19.20;69.20;100676.75;4953115;28;20394;-82
2021/08/12 04:33:17;;;;;;;5.43;4.73;;;;;;;19.21;69.55;100678.38;4953351;28;20426;-82
2021/08/12 04:35:43;;;;;;;5.15;4.13;;;;;;;19.23;69.06;100683.59;4953492;29;20405;-82
2021/08/12 04:38:09;;;;;;;4.43;3.90;;;;;;;19.23;68.55;100689.09;4967948;28;20894;-82
2021/08/12 04:40:34;;;;;;;8.80;3.95;;;;;;;19.24;69.06;100690.69;4953394;28;20430;-82
2021/08/12 04:42:59;;;;;;;9.03;3.90;;;;;;;19.24;69.30;100686.03;4953439;29;20390;-81
2021/08/12 04:45:27;;;;;;;6.73;4.40;;;;;;;19.26;70.20;100694.00;4953017;29;20402;-82
2021/08/12 04:47:57;;;;;;;4.78;4.10;;;;;;;19.33;71.69;100697.97;4953366;29;20412;-82
2021/08/12 04:50:23;;;;;;;4.77;4.23;;;;;;;19.36;72.31;100693.84;4952022;28;20761;-83
2021/08/12 04:52:48;;;;;;;6.70;4.50;;;;;;;19.38;72.73;100695.19;4955831;28;20428;-82
2021/08/12 04:55:13;;;;;;;8.97;4.27;;;;;;;19.45;72.75;100705.81;4969692;28;20491;-83
2021/08/12 04:57:38;;;;;;;9.03;4.87;;;;;;;19.44;72.75;100698.69;4971427;28;20417;-81
2021/08/12 05:00:04;;;;;;;5.23;4.20;;;;;;;19.49;72.77;100704.13;4972668;28;20771;-82
2021/08/12 05:02:30;;;;;;;5.07;4.57;;;;;;;19.51;72.63;100705.44;4973514;28;20406;-82
2021/08/12 05:04:55;;;;;;;5.63;4.83;;;;;;;19.51;72.66;100699.97;4976348;28;20400;-82
2021/08/12 05:07:20;;;;;;;5.23;4.73;;;;;;;19.49;72.58;100702.19;4974402;28;20446;-81
2021/08/12 05:09:45;;;;;;;6.97;4.43;;;;;;;19.45;72.38;100703.09;4976364;28;20945;-82
2021/08/12 05:12:11;;;;;;;5.10;4.17;;;;;;;19.35;73.03;100703.19;4975633;28;20415;-82
2021/08/12 05:14:36;;;;;;;4.40;4.10;;;;;;;19.33;73.04;100708.97;4975734;28;20399;-82
2021/08/12 05:17:01;;;;;;;8.32;4.65;;;;;;;19.34;73.22;100698.81;4975056;28;20571;-82
2021/08/12 05:19:27;;;;;;;8.37;4.73;;;;;;;19.37;72.90;100692.72;4974320;28;20503;-82
2021/08/12 05:21:52;;;;;;;5.27;4.77;;;;;;;19.37;72.90;100695.47;4974718;28;20486;-82
2021/08/12 05:24:17;;;;;;;4.63;4.23;;;;;;;19.36;72.95;100688.34;4973739;28;20431;-82
2021/08/12 05:26:42;;;;;;;5.70;4.05;;;;;;;19.38;72.57;100684.19;4976004;28;20415;-82
2021/08/12 05:29:08;;;;;;;6.10;4.80;;;;;;;19.36;71.51;100685.59;4975841;28;20411;-83
2021/08/12 05:31:34;;;;;;;7.63;4.27;;;;;;;19.28;71.40;100684.31;4974383;28;20463;-82
2021/08/12 05:33:59;;;;;;;5.75;4.13;;;;;;;19.28;71.13;100686.25;4975857;28;21009;-82
2021/08/12 05:36:24;;;;;;;9.10;4.73;;;;;;;19.24;70.70;100676.97;4974455;28;20411;-82
2021/08/12 05:38:50;;;;;;;7.83;4.47;;;;;;;19.21;70.73;100685.81;4974596;28;20473;-82
2021/08/12 05:41:15;;;;;;;6.83;4.50;;;;;;;19.23;70.78;100689.09;4974021;28;20530;-82
2021/08/12 05:43:40;;;;;;;4.70;3.90;;;;;;;19.22;70.95;100693.75;4975880;28;20407;-82
2021/08/12 05:46:05;;;;;;;4.47;4.07;;;;;;;19.22;71.07;100699.25;4975551;28;20414;-82
2021/08/12 05:48:31;;;;;;;7.13;4.30;;;;;;;19.26;71.36;100694.00;4975797;28;20396;-82
2021/08/12 05:50:56;;;;;;;5.30;4.80;;;;;;;19.32;71.51;100692.81;4975503;28;20494;-82
2021/08/12 05:53:22;;;;;;;7.22;4.82;;;;;;;19.38;71.78;100703.41;4967347;28;20916;-83
2021/08/12 05:55:48;;;;;;;9.10;5.03;;;;;;;19.46;71.97;100701.97;4951927;29;20410;-82
2021/08/12 05:58:13;;;;;;;6.90;5.05;;;;;;;19.55;72.43;100708.44;4955882;29;20410;-82
2021/08/12 06:00:38;;;;;;;6.87;6.17;;;;;;;19.63;72.23;100704.97;4956022;29;20390;-82
2021/08/12 06:03:12;;;;;;;6.88;5.82;;;;;;;19.73;71.75;100709.50;4956356;29;20401;-82
2021/08/12 06:05:38;;;;;;;6.20;5.40;;;;;;;19.78;71.86;100712.19;4955647;29;20452;-82
2021/08/12 06:08:05;;;;;;;6.97;5.32;;;;;;;19.82;71.53;100715.97;4955611;29;20406;-83
2021/08/12 06:10:32;;;;;;;8.40;5.30;;;;;;;19.92;71.29;100713.84;4956153;29;20559;-82
2021/08/12 06:12:57;;;;;;;6.10;5.20;;;;;;;19.99;71.46;100716.25;4955393;28;20437;-82
2021/08/12 06:15:24;;;;;;;7.23;5.63;;;;;;;19.99;71.36;100730.00;4955280;29;20885;-82
2021/08/12 06:17:49;;;;;;;7.63;5.53;;;;;;;19.98;71.80;100729.19;4954450;28;20414;-82
2021/08/12 06:20:16;;;;;;;6.23;4.57;;;;;;;19.96;72.09;100727.81;4950887;28;20414;-82
2021/08/12 06:22:42;;;;;;;6.68;4.78;;;;;;;19.96;72.21;100730.56;4950004;28;20480;-82
2021/08/12 06:25:08;;;;;;;9.57;4.50;;;;;;;19.96;72.37;100730.56;4949949;28;20900;-81
2021/08/12 06:27:33;;;;;;;6.45;4.43;;;;;;;19.96;72.47;100725.91;4952033;28;20444;-82
2021/08/12 06:29:58;;;;;;;5.77;4.73;;;;;;;19.94;72.72;100719.06;4936577;29;20417;-82
2021/08/12 06:32:24;;;;;;;7.43;4.83;;;;;;;19.93;72.57;100718.25;4948323;28;20426;-80
2021/08/12 06:34:49;;;;;;;5.67;4.67;;;;;;;19.98;72.68;100714.59;4948511;28;20834;-80
2021/08/12 06:37:14;;;;;;;11.82;5.03;;;;;;;20.07;72.60;100712.78;4949312;29;20871;-80
2021/08/12 06:39:40;;;;;;;6.83;5.23;;;;;;;20.14;72.40;100715.97;4949741;29;20426;-79
2021/08/12 06:42:05;;;;;;;6.13;5.03;;;;;;;20.16;72.31;100710.97;4952750;29;20452;-80
2021/08/12 06:44:30;;;;;;;7.88;4.63;;;;;;;20.20;72.58;100717.50;4954730;28;20417;-80
2021/08/12 06:47:08;;;;;;;6.00;4.77;;;;;;;20.27;72.65;100717.97;4954987;29;20959;-80
2021/08/12 06:49:33;;;;;;;9.13;5.18;;;;;;;20.37;72.35;100720.53;4953963;28;20947;-81
2021/08/12 06:51:58;;;;;;;7.40;4.73;;;;;;;20.40;72.60;100719.94;4950780;28;20520;-81
2021/08/12 06:54:24;;;;;;;9.53;5.93;;;;;;;20.41;72.86;100724.31;4969085;28;21160;-82
2021/08/12 06:56:53;;;;;;;8.17;6.00;;;;;;;20.45;72.90;100730.84;4971550;28;20450;-81
2021/08/12 06:59:18;;;;;;;10.43;5.65;;;;;;;20.51;72.98;100721.38;4972809;28;20420;-83
2021/08/12 07:01:44;;;;;;;10.60;5.77;;;;;;;20.57;72.82;100724.84;4973601;28;20415;-82
2021/08/12 07:04:09;;;;;;;10.57;5.88;;;;;;;20.58;72.47;100727.28;4970660;28;20411;-80
2021/08/12 07:06:38;;;;;;;9.60;5.87;;;;;;;20.60;72.49;100735.25;4974341;28;20416;-82
2021/08/12 07:09:04;;;;;;;8.60;5.82;;;;;;;20.57;72.32;100724.84;4973805;28;20416;-81
2021/08/12 07:11:29;;;;;;;10.20;5.97;;;;;;;20.60;72.74;100730.56;4973640;28;20404;-82
2021/08/12 07:13:58;;;;;;;8.07;5.03;;;;;;;20.61;72.34;100731.38;4973100;28;20534;-81
2021/08/12 07:16:23;;;;;;;7.43;5.00;;;;;;;20.63;71.47;100732.69;4973080;28;20891;-81
2021/08/12 07:18:48;;;;;;;5.40;4.90;;;;;;;20.63;71.50;100729.13;4972626;28;20495;-82
2021/08/12 07:21:20;;;;;;;7.03;4.80;;;;;;;20.67;71.26;100727.41;4973618;28;20411;-82
2021/08/12 07:23:49;;;;;;;10.32;5.07;;;;;;;20.69;70.91;100727.91;4973794;28;20397;-81
2021/08/12 07:26:16;;;;;;;6.88;5.03;;;;;;;20.69;70.73;100730.66;4973205;28;20919;-82
2021/08/12 07:28:43;;;;;;;7.70;5.45;;;;;;;20.74;71.03;100721.50;4989164;28;20423;-80
2021/08/12 07:31:11;;;;;;;5.63;5.07;;;;;;;20.82;70.68;100721.59;4972385;28;20418;-80
2021/08/12 07:33:36;;;;;;;7.50;5.47;;;;;;;20.89;70.79;100722.00;4971050;28;20989;-81
2021/08/12 07:36:03;;;;;;;7.07;5.10;;;;;;;20.95;70.43;100720.75;4971718;28;20424;-81
2021/08/12 07:38:29;;;;;;;7.22;5.65;;;;;;;20.96;69.44;100721.56;4973509;28;20455;-86
2021/08/12 07:40:56;;;;;;;7.03;5.30;;;;;;;20.98;69.52;100716.56;4983960;28;20406;-82
2021/08/12 07:43:21;;;;;;;8.90;5.13;;;;;;;21.02;69.41;100721.16;4954555;28;20402;-83
2021/08/12 07:45:46;;;;;;;8.30;4.90;;;;;;;21.09;68.94;100720.75;4971358;28;20458;-82
2021/08/12 07:48:11;;;;;;;5.90;5.30;;;;;;;21.15;69.13;100720.34;4972962;28;20404;-82
2021/08/12 07:50:37;;;;;;;6.60;5.50;;;;;;;21.19;68.58;100715.88;4973713;28;20404;-82
2021/08/12 07:53:02;;;;;;;5.57;5.00;;;;;;;21.29;69.12;100719.50;4973051;28;20423;-82
2021/08/12 07:55:27;;;;;;;7.43;5.77;;;;;;;21.37;69.54;100721.56;4972699;28;20508;-81
2021/08/12 07:57:53;;;;;;;6.55;5.63;;;;;;;21.44;68.29;100730.22;4972522;28;20407;-81
2021/08/12 08:00:19;;;;;;;5.90;5.03;;;;;;;21.50;67.82;100721.53;4973456;28;20404;-81
2021/08/12 08:02:46;;;;;;;5.18;4.68;;;;;;;21.59;67.82;100722.41;4992626;28;20487;-86
2021/08/12 08:05:16;;;;;;;16.60;9.23;;;;;;;21.65;67.84;100718.38;4987315;28;20795;-80
2021/08/12 08:07:42;;;;;;;8.70;5.35;;;;;;;21.69;67.60;100713.06;4973044;28;20894;-80
2021/08/12 08:10:08;;;;;;;8.27;5.57;;;;;;;21.67;67.25;100707.03;4970241;28;20400;-80
2021/08/12 08:12:33;;;;;;;9.20;5.78;;;;;;;21.70;67.45;100712.75;4972243;28;20494;-81
2021/08/12 08:14:59;;;;;;;8.43;5.30;;;;;;;21.78;67.75;100713.13;4968206;28;20566;-81
2021/08/12 08:17:24;;;;;;;8.13;4.97;;;;;;;21.90;67.76;100707.91;4966671;28;20407;-81
2021/08/12 08:19:49;;;;;;;6.73;5.07;;;;;;;22.04;67.80;100708.63;4967345;28;20414;-81
2021/08/12 08:22:15;;;;;;;10.65;5.68;;;;;;;22.20;67.51;100705.16;4966544;28;20408;-81
2021/08/12 08:24:40;;;;;;;7.43;5.20;;;;;;;22.33;66.57;100714.47;4966150;28;20534;-81
2021/08/12 08:27:05;;;;;;;5.67;5.03;;;;;;;22.45;66.18;100708.38;4966594;28;20420;-82
2021/08/12 08:29:31;;;;;;;5.67;4.93;;;;;;;22.58;65.61;100710.22;4965402;28;20427;-81
2021/08/12 08:31:56;;;;;;;7.03;5.47;;;;;;;22.65;65.36;100711.41;4971373;28;20502;-81
2021/08/12 08:34:21;;;;;;;7.90;5.38;;;;;;;22.68;64.76;100716.31;4970536;28;20803;-82
2021/08/12 08:36:46;;;;;;;7.57;5.00;;;;;;;22.73;64.94;100726.41;4966435;28;20494;-82
2021/08/12 08:39:12;;;;;;;6.20;5.03;;;;;;;22.77;65.35;100721.06;4967264;28;20408;-82
2021/08/12 08:41:37;;;;;;;7.37;5.33;;;;;;;22.76;65.68;100725.75;4960083;28;20865;-82
2021/08/12 08:44:03;;;;;;;5.87;5.27;;;;;;;;;;4970978;28;21151;-82
2021/08/12 08:46:28;;;;;;;6.60;4.80;;;;;;;23.09;65.12;100723.41;4971323;28;20440;-83
2021/08/12 08:48:57;;;;;;;7.30;5.00;;;;;;;23.30;64.74;100720.88;4968012;28;20408;-82
2021/08/12 08:51:23;;;;;;;9.13;5.75;;;;;;;23.45;64.36;100712.94;4966096;28;20494;-81
2021/08/12 08:53:49;;;;;;;8.77;5.67;;;;;;;23.56;64.31;100714.25;4963957;28;20531;-82
2021/08/12 08:56:16;;;;;;;6.65;5.55;;;;;;;23.67;64.00;100718.31;4965909;28;20442;-84
2021/08/12 08:58:41;;;;;;;7.68;4.88;;;;;;;23.77;63.94;100720.78;4966576;28;20412;-82
2021/08/12 09:01:07;;;;;;;6.03;5.37;;;;;;;23.90;63.35;100723.69;4964337;28;20422;-82
2021/08/12 09:03:32;;;;;;;7.03;5.18;;;;;;;24.03;63.68;100723.50;4967037;28;20452;-80
2021/08/12 09:05:57;;;;;;;6.10;5.50;;;;;;;24.09;62.20;100713.06;4965830;28;20997;-83
2021/08/12 09:08:23;;;;;;;13.10;5.20;;;;;;;24.13;62.73;100714.88;4965582;28;20479;-83
2021/08/12 09:10:49;;;;;;;6.67;4.70;;;;;;;24.22;61.99;100720.38;4968210;28;20448;-82
2021/08/12 09:13:14;;;;;;;5.53;4.95;;;;;;;24.23;61.49;100713.72;4965001;28;20437;-82
2021/08/12 09:15:44;;;;;;;6.50;4.63;;;;;;;24.25;61.54;100709.47;4966649;28;20419;-86
2021/08/12 09:18:24;;;;;;;7.55;6.00;;;;;;;24.29;61.27;100715.16;4965544;28;20408;-84
2021/08/12 09:20:51;;;;;;;7.70;5.15;;;;;;;24.38;61.73;100709.59;4967093;28;20501;-83
2021/08/12 09:23:22;;;;;;;6.45;5.50;;;;;;;24.49;60.63;100720.00;4966432;28;20416;-82
2021/08/12 09:25:49;;;;;;;7.63;5.30;;;;;;;24.61;60.23;100713.75;4966553;28;20467;-83
2021/08/12 09:28:30;;;;;;;6.35;5.28;;;;;;;24.82;59.95;100713.81;4965361;28;20420;-82
2021/08/12 09:31:01;;;;;;;9.30;4.97;;;;;;;25.09;59.31;100714.16;4967016;28;20502;-81
2021/08/12 09:33:28;;;;;;;7.35;5.95;;;;;;;25.27;57.93;100710.16;4966821;28;20439;-82
2021/08/12 09:35:55;;;;;;;5.88;4.93;;;;;;;25.45;57.47;100704.47;4965253;28;20412;-83
2021/08/12 09:38:21;;;;;;;6.13;5.10;;;;;;;25.59;57.24;100697.50;4964425;28;20424;-83
2021/08/12 09:40:58;;;;;;;9.55;5.68;;;;;;;25.72;56.74;100693.63;4964663;28;20408;-84
2021/08/12 09:43:28;;;;;;;5.47;4.85;;;;;;;25.97;55.82;100693.75;4964529;28;20415;-81
2021/08/12 09:45:54;;;;;;;5.50;4.97;;;;;;;26.20;54.52;100695.00;4962008;28;20415;-83
2021/08/12 09:48:20;;;;;;;6.28;4.80;;;;;;;26.38;54.04;100701.97;4964897;28;21059;-86
2021/08/12 09:51:07;;;;;;;7.55;5.50;;;;;;;26.69;54.13;100707.81;4969282;28;20415;-84
2021/08/12 09:53:33;;;;;;;7.95;4.97;;;;;;;27.05;52.75;100706.19;4971011;28;20431;-84
2021/08/12 09:56:12;;;;;;;5.88;5.05;;;;;;;27.60;51.40;100700.78;4974238;28;20479;-82
2021/08/12 09:58:38;;;;;;;8.90;4.82;;;;;;;28.39;49.61;100699.00;4967110;28;20403;-84
2021/08/12 10:01:25;;;;;;;5.82;4.75;;;;;;;29.00;48.02;100706.94;4971089;28;20882;-83
2021/08/12 10:03:51;;;;;;;8.80;4.50;;;;;;;29.88;45.37;100705.34;4974142;28;20439;-81
2021/08/12 10:06:27;;;;;;;5.32;4.68;;;;;;;30.28;45.42;100703.75;4973298;28;20771;-84
2021/08/12 10:08:53;;;;;;;8.63;4.23;;;;;;;30.86;43.86;100697.94;4975162;28;20388;-83
2021/08/12 10:11:26;;;;;;;4.95;4.45;;;;;;;31.36;42.74;100703.13;4974197;28;20417;-83
2021/08/12 10:13:57;;;;;;;4.75;4.35;;;;;;;32.04;41.10;100692.81;4967718;28;20420;-85
2021/08/12 10:16:25;;;;;;;6.68;4.63;;;;;;;32.63;39.29;100698.25;4965504;28;20544;-83
2021/08/12 10:18:51;;;;;;;5.57;4.47;;;;;;;32.94;37.90;100696.06;4968491;28;20447;-82
2021/08/12 10:21:18;;;;;;;4.50;4.10;;;;;;;33.35;37.15;100691.94;4970783;28;20412;-83
2021/08/12 10:23:46;;;;;;;5.50;3.97;;;;;;;33.76;35.80;100698.97;4974754;28;20400;-84
2021/08/12 10:26:12;;;;;;;4.57;4.18;;;;;;;33.86;35.38;100689.78;4975414;28;20431;-83
2021/08/12 10:28:41;;;;;;;7.63;3.97;;;;;;;34.47;33.68;100687.09;4969098;28;20443;-84
2021/08/12 10:31:07;;;;;;;5.75;3.65;;;;;;;35.43;31.34;100691.47;4965311;28;20502;-83
2021/08/12 10:33:34;;;;;;;6.60;4.07;;;;;;;36.26;30.87;100685.06;4968591;28;20428;-82
2021/08/12 10:36:00;;;;;;;4.38;3.70;;;;;;;36.85;29.96;100680.16;4967186;28;20503;-84
2021/08/12 10:38:26;;;;;;;4.65;4.20;;;;;;;36.65;29.50;100682.75;4967451;28;20895;-84
2021/08/12 10:40:52;;;;;;;4.55;4.25;;;;;;;36.31;30.94;100693.06;4967703;28;20482;-84
2021/08/12 10:43:26;;;;;;;4.85;3.80;;;;;;;36.24;31.51;100690.28;4967064;28;20752;-84
2021/08/12 10:46:02;;;;;;;4.35;3.95;;;;;;;35.69;31.54;100679.72;4972098;28;20500;-83
2021/08/12 10:48:29;;;;;;;4.60;3.70;;;;;;;35.93;32.32;100686.41;4973720;28;20407;-84
2021/08/12 10:51:12;;;;;;;5.10;3.50;;;;;;;36.12;31.83;100680.31;4972283;28;20412;-83
2021/08/12 10:53:39;;;;;;;7.05;3.53;;;;;;;36.07;31.08;100674.28;4964247;28;20773;-81
2021/08/12 10:56:16;;;;;;;4.40;3.92;;;;;;;35.90;31.31;100676.75;4950578;28;20422;-83
2021/08/12 10:58:47;;;;;;;4.00;3.70;;;;;;;36.19;30.76;100673.81;4952384;28;20431;-82
2021/08/12 11:01:26;;;;;;;5.53;4.03;;;;;;;36.32;30.47;100666.47;4939586;29;20410;-80
2021/08/12 11:03:53;;;;;;;4.90;3.33;;;;;;;36.25;30.80;100667.31;4953697;28;20757;-82
2021/08/12 11:06:33;;;;;;;4.88;4.00;;;;;;;35.19;31.94;100664.16;4951311;28;20410;-80
2021/08/12 11:09:00;;;;;;;4.30;3.90;;;;;;;33.94;34.82;100656.88;4936411;28;20413;-81
2021/08/12 11:11:25;;;;;;;5.75;4.55;;;;;;;33.20;35.77;100662.16;4951603;28;20421;-82
2021/08/12 11:13:55;;;;;;;5.47;4.67;;;;;;;32.48;37.83;100654.38;4956179;28;20487;-81
2021/08/12 11:16:22;;;;;;;5.53;4.20;;;;;;;31.76;40.09;100648.44;4937179;28;20829;-81
2021/08/12 11:18:49;;;;;;;5.25;4.20;;;;;;;31.46;40.46;100656.84;4949475;28;20508;-83
2021/08/12 11:21:30;;;;;;;6.30;4.78;;;;;;;31.59;40.61;100651.81;4948535;28;20445;-80
2021/08/12 11:24:06;;;;;;;5.07;4.30;;;;;;;31.98;40.52;100649.50;4947681;28;20426;-82